sensor_id;sensor_type;location;lat;lon;timestamp;pressure;altitude;pressure_sealevel;temperature;humidity
21276;BME280;36472;52.170;20.884;2023-04-30T00:00:08;100194.44;;;13.90;84.47
21276;BME280;36472;52.170;20.884;2023-04-30T00:02:57;100193.50;;;13.91;85.14
21276;BME280;36472;52.170;20.884;2023-04-30T00:05:28;100196.97;;;13.91;85.31
21276;BME280;36472;52.170;20.884;2023-04-30T00:07:57;100196.00;;;13.92;85.60
21276;BME280;36472;52.170;20.884;2023-04-30T00:10:26;100195.28;;;13.90;86.22
21276;BME280;36472;52.170;20.884;2023-04-30T00:12:54;100190.25;;;13.87;86.55
21276;BME280;36472;52.170;20.884;2023-04-30T00:15:23;100196.38;;;13.88;87.09
21276;BME280;36472;52.170;20.884;2023-04-30T00:17:52;100192.31;;;13.83;87.13
21276;BME280;36472;52.170;20.884;2023-04-30T00:20:21;100191.72;;;13.80;87.23
21276;BME280;36472;52.170;20.884;2023-04-30T00:22:51;100192.69;;;13.79;87.26
21276;BME280;36472;52.170;20.884;2023-04-30T00:25:20;100194.34;;;13.80;87.38
21276;BME280;36472;52.170;20.884;2023-04-30T00:27:51;100205.78;;;13.80;86.92
21276;BME280;36472;52.170;20.884;2023-04-30T00:30:20;100198.81;;;13.79;86.89
21276;BME280;36472;52.170;20.884;2023-04-30T00:32:48;100201.56;;;13.78;87.37
21276;BME280;36472;52.170;20.884;2023-04-30T00:35:17;100207.69;;;13.78;86.78
21276;BME280;36472;52.170;20.884;2023-04-30T00:37:46;100203.75;;;13.73;86.53
21276;BME280;36472;52.170;20.884;2023-04-30T00:40:17;100204.44;;;13.75;85.80
21276;BME280;36472;52.170;20.884;2023-04-30T00:42:45;100208.78;;;13.76;85.77
21276;BME280;36472;52.170;20.884;2023-04-30T00:45:15;100218.66;;;13.74;85.71
21276;BME280;36472;52.170;20.884;2023-04-30T00:47:48;100210.72;;;13.74;85.19
21276;BME280;36472;52.170;20.884;2023-04-30T00:50:18;100212.66;;;13.72;85.59
21276;BME280;36472;52.170;20.884;2023-04-30T00:52:47;100213.56;;;13.50;87.04
21276;BME280;36472;52.170;20.884;2023-04-30T00:55:18;100214.97;;;13.54;87.12
21276;BME280;36472;52.170;20.884;2023-04-30T00:57:48;100215.91;;;13.64;86.88
21276;BME280;36472;52.170;20.884;2023-04-30T01:00:17;100213.47;;;13.72;86.34
21276;BME280;36472;52.170;20.884;2023-04-30T01:02:47;100208.44;;;13.69;87.26
21276;BME280;36472;52.170;20.884;2023-04-30T01:05:16;100209.16;;;13.71;87.74
21276;BME280;36472;52.170;20.884;2023-04-30T01:07:45;100212.50;;;13.73;87.49
21276;BME280;36472;52.170;20.884;2023-04-30T01:10:16;100213.25;;;13.75;87.83
21276;BME280;36472;52.170;20.884;2023-04-30T01:12:53;100208.06;;;13.74;88.17
21276;BME280;36472;52.170;20.884;2023-04-30T01:15:33;100213.13;;;13.77;88.35
21276;BME280;36472;52.170;20.884;2023-04-30T01:18:10;100214.91;;;13.76;88.88
21276;BME280;36472;52.170;20.884;2023-04-30T01:20:48;100209.84;;;13.73;89.41
21276;BME280;36472;52.170;20.884;2023-04-30T01:23:36;100208.78;;;13.76;89.18
21276;BME280;36472;52.170;20.884;2023-04-30T01:26:23;100212.38;;;13.75;89.25
21276;BME280;36472;52.170;20.884;2023-04-30T01:28:59;100221.63;;;13.80;89.35
21276;BME280;36472;52.170;20.884;2023-04-30T01:31:30;100221.41;;;13.72;89.59
21276;BME280;36472;52.170;20.884;2023-04-30T01:33:59;100216.59;;;13.77;90.10
21276;BME280;36472;52.170;20.884;2023-04-30T01:36:47;100218.00;;;13.81;89.69
21276;BME280;36472;52.170;20.884;2023-04-30T01:39:52;100217.06;;;13.82;90.04
21276;BME280;36472;52.170;20.884;2023-04-30T01:42:34;100224.84;;;13.84;90.16
21276;BME280;36472;52.170;20.884;2023-04-30T01:45:21;100224.13;;;13.82;89.92
21276;BME280;36472;52.170;20.884;2023-04-30T01:48:06;100221.16;;;13.75;90.65
21276;BME280;36472;52.170;20.884;2023-04-30T01:50:46;100233.13;;;13.79;90.64
21276;BME280;36472;52.170;20.884;2023-04-30T01:53:23;100230.63;;;13.78;90.96
21276;BME280;36472;52.170;20.884;2023-04-30T01:56:01;100231.72;;;13.75;91.15
21276;BME280;36472;52.170;20.884;2023-04-30T01:58:31;100229.91;;;13.76;91.41
21276;BME280;36472;52.170;20.884;2023-04-30T02:01:02;100231.00;;;13.73;91.63
21276;BME280;36472;52.170;20.884;2023-04-30T02:03:32;100235.69;;;13.70;92.11
21276;BME280;36472;52.170;20.884;2023-04-30T02:06:01;100237.16;;;13.62;92.87
21276;BME280;36472;52.170;20.884;2023-04-30T02:08:30;100239.53;;;13.65;93.21
21276;BME280;36472;52.170;20.884;2023-04-30T02:10:59;100243.75;;;13.57;93.83
21276;BME280;36472;52.170;20.884;2023-04-30T02:13:28;100236.09;;;13.54;94.05
21276;BME280;36472;52.170;20.884;2023-04-30T02:15:57;100235.03;;;13.56;94.02
21276;BME280;36472;52.170;20.884;2023-04-30T02:18:27;100241.72;;;13.60;94.13
21276;BME280;36472;52.170;20.884;2023-04-30T02:20:56;100242.31;;;13.53;94.47
21276;BME280;36472;52.170;20.884;2023-04-30T02:23:25;100241.38;;;13.42;95.10
21276;BME280;36472;52.170;20.884;2023-04-30T02:25:53;100244.41;;;13.38;95.88
21276;BME280;36472;52.170;20.884;2023-04-30T02:28:22;100247.41;;;13.33;96.11
21276;BME280;36472;52.170;20.884;2023-04-30T02:30:51;100250.28;;;13.41;96.22
21276;BME280;36472;52.170;20.884;2023-04-30T02:33:20;100252.28;;;13.26;97.10
21276;BME280;36472;52.170;20.884;2023-04-30T02:35:50;100256.50;;;13.29;97.61
21276;BME280;36472;52.170;20.884;2023-04-30T02:38:19;100256.75;;;13.37;97.10
21276;BME280;36472;52.170;20.884;2023-04-30T02:40:48;100261.19;;;13.14;98.43
21276;BME280;36472;52.170;20.884;2023-04-30T02:43:17;100261.88;;;13.05;98.98
21276;BME280;36472;52.170;20.884;2023-04-30T02:45:46;100262.00;;;13.15;98.42
21276;BME280;36472;52.170;20.884;2023-04-30T02:48:15;100272.44;;;12.94;99.27
21276;BME280;36472;52.170;20.884;2023-04-30T02:50:44;100269.56;;;12.97;99.91
21276;BME280;36472;52.170;20.884;2023-04-30T02:53:15;100279.28;;;13.07;98.84
21276;BME280;36472;52.170;20.884;2023-04-30T02:55:44;100278.34;;;13.08;98.06
21276;BME280;36472;52.170;20.884;2023-04-30T02:58:13;100280.00;;;13.09;98.08
21276;BME280;36472;52.170;20.884;2023-04-30T03:00:42;100282.28;;;13.14;97.57
21276;BME280;36472;52.170;20.884;2023-04-30T03:03:11;100290.78;;;13.18;97.04
21276;BME280;36472;52.170;20.884;2023-04-30T03:05:40;100290.78;;;13.18;95.91
21276;BME280;36472;52.170;20.884;2023-04-30T03:08:09;100289.84;;;13.19;95.80
21276;BME280;36472;52.170;20.884;2023-04-30T03:10:40;100287.69;;;13.13;95.13
21276;BME280;36472;52.170;20.884;2023-04-30T03:13:09;100297.63;;;13.09;94.55
21276;BME280;36472;52.170;20.884;2023-04-30T03:15:38;100302.91;;;13.09;94.05
21276;BME280;36472;52.170;20.884;2023-04-30T03:18:07;100308.06;;;13.10;93.37
21276;BME280;36472;52.170;20.884;2023-04-30T03:20:36;100311.41;;;13.13;91.98
21276;BME280;36472;52.170;20.884;2023-04-30T03:23:05;100312.25;;;13.13;91.58
21276;BME280;36472;52.170;20.884;2023-04-30T03:25:33;100309.00;;;13.09;90.97
21276;BME280;36472;52.170;20.884;2023-04-30T03:28:04;100322.09;;;13.11;90.17
21276;BME280;36472;52.170;20.884;2023-04-30T03:30:32;100314.63;;;13.05;89.00
21276;BME280;36472;52.170;20.884;2023-04-30T03:33:02;100320.06;;;13.03;88.53
21276;BME280;36472;52.170;20.884;2023-04-30T03:35:33;100321.13;;;13.01;88.28
21276;BME280;36472;52.170;20.884;2023-04-30T03:38:02;100340.91;;;12.95;87.67
21276;BME280;36472;52.170;20.884;2023-04-30T03:40:31;100335.38;;;12.87;87.71
21276;BME280;36472;52.170;20.884;2023-04-30T03:43:00;100346.25;;;12.82;88.28
21276;BME280;36472;52.170;20.884;2023-04-30T03:45:30;100351.16;;;12.76;87.37
21276;BME280;36472;52.170;20.884;2023-04-30T03:47:59;100358.38;;;12.49;87.19
21276;BME280;36472;52.170;20.884;2023-04-30T03:50:28;100365.59;;;12.34;85.81
21276;BME280;36472;52.170;20.884;2023-04-30T03:52:57;100364.09;;;12.19;86.24
21276;BME280;36472;52.170;20.884;2023-04-30T03:55:26;100370.25;;;12.07;87.54
21276;BME280;36472;52.170;20.884;2023-04-30T03:57:55;100373.97;;;12.04;86.76
21276;BME280;36472;52.170;20.884;2023-04-30T04:00:25;100366.09;;;11.91;85.27
21276;BME280;36472;52.170;20.884;2023-04-30T04:02:57;100378.28;;;11.79;86.46
21276;BME280;36472;52.170;20.884;2023-04-30T04:05:27;100388.63;;;11.83;85.74
21276;BME280;36472;52.170;20.884;2023-04-30T04:07:56;100395.16;;;11.77;85.13
21276;BME280;36472;52.170;20.884;2023-04-30T04:10:25;100402.66;;;11.70;85.25
21276;BME280;36472;52.170;20.884;2023-04-30T04:12:54;100405.19;;;11.72;84.93
21276;BME280;36472;52.170;20.884;2023-04-30T04:15:23;100409.56;;;11.71;84.12
21276;BME280;36472;52.170;20.884;2023-04-30T04:17:54;100417.69;;;11.68;83.57
21276;BME280;36472;52.170;20.884;2023-04-30T04:20:23;100421.81;;;11.72;80.87
21276;BME280;36472;52.170;20.884;2023-04-30T04:22:52;100436.25;;;11.67;81.06
21276;BME280;36472;52.170;20.884;2023-04-30T04:25:21;100436.00;;;11.70;81.12
21276;BME280;36472;52.170;20.884;2023-04-30T04:27:52;100438.53;;;11.71;80.48
21276;BME280;36472;52.170;20.884;2023-04-30T04:30:20;100441.78;;;11.75;79.39
21276;BME280;36472;52.170;20.884;2023-04-30T04:32:50;100452.31;;;11.75;78.51
21276;BME280;36472;52.170;20.884;2023-04-30T04:35:21;100448.03;;;11.74;78.52
21276;BME280;36472;52.170;20.884;2023-04-30T04:37:51;100448.66;;;11.77;78.28
21276;BME280;36472;52.170;20.884;2023-04-30T04:40:19;100454.66;;;11.79;78.64
21276;BME280;36472;52.170;20.884;2023-04-30T04:42:49;100446.84;;;11.78;79.32
21276;BME280;36472;52.170;20.884;2023-04-30T04:45:19;100466.25;;;11.77;79.25
21276;BME280;36472;52.170;20.884;2023-04-30T04:47:49;100468.03;;;11.76;78.86
21276;BME280;36472;52.170;20.884;2023-04-30T04:50:18;100470.78;;;11.62;77.58
21276;BME280;36472;52.170;20.884;2023-04-30T04:52:49;100471.19;;;11.69;76.90
21276;BME280;36472;52.170;20.884;2023-04-30T04:55:18;100483.50;;;11.68;76.02
21276;BME280;36472;52.170;20.884;2023-04-30T04:57:47;100485.19;;;11.69;76.85
21276;BME280;36472;52.170;20.884;2023-04-30T05:00:16;100479.19;;;11.67;75.67
21276;BME280;36472;52.170;20.884;2023-04-30T05:02:46;100491.09;;;11.73;76.23
21276;BME280;36472;52.170;20.884;2023-04-30T05:05:15;100493.19;;;11.68;75.53
21276;BME280;36472;52.170;20.884;2023-04-30T05:07:44;100502.69;;;11.70;74.05
21276;BME280;36472;52.170;20.884;2023-04-30T05:10:15;100498.06;;;11.74;74.16
21276;BME280;36472;52.170;20.884;2023-04-30T05:12:44;100502.34;;;11.75;74.43
21276;BME280;36472;52.170;20.884;2023-04-30T05:15:13;100514.47;;;11.77;74.96
21276;BME280;36472;52.170;20.884;2023-04-30T05:17:42;100517.53;;;11.84;75.74
21276;BME280;36472;52.170;20.884;2023-04-30T05:20:11;100519.97;;;11.87;76.07
21276;BME280;36472;52.170;20.884;2023-04-30T05:22:41;100520.69;;;11.89;75.43
21276;BME280;36472;52.170;20.884;2023-04-30T05:25:09;100519.53;;;11.81;76.26
21276;BME280;36472;52.170;20.884;2023-04-30T05:27:40;100520.69;;;11.89;76.54
21276;BME280;36472;52.170;20.884;2023-04-30T05:30:10;100524.41;;;12.00;76.80
21276;BME280;36472;52.170;20.884;2023-04-30T05:32:39;100529.75;;;12.11;76.79
21276;BME280;36472;52.170;20.884;2023-04-30T05:35:08;100531.66;;;12.09;74.47
21276;BME280;36472;52.170;20.884;2023-04-30T05:37:37;100546.53;;;12.10;74.61
21276;BME280;36472;52.170;20.884;2023-04-30T05:40:08;100546.75;;;12.07;74.31
21276;BME280;36472;52.170;20.884;2023-04-30T05:42:37;100548.19;;;12.11;74.69
21276;BME280;36472;52.170;20.884;2023-04-30T05:45:09;100541.88;;;12.13;74.32
21276;BME280;36472;52.170;20.884;2023-04-30T05:47:38;100549.38;;;12.20;74.20
21276;BME280;36472;52.170;20.884;2023-04-30T05:50:09;100551.34;;;12.16;75.11
21276;BME280;36472;52.170;20.884;2023-04-30T05:52:38;100555.16;;;12.25;74.63
21276;BME280;36472;52.170;20.884;2023-04-30T05:55:08;100549.75;;;12.26;75.03
21276;BME280;36472;52.170;20.884;2023-04-30T05:57:37;100562.22;;;12.24;74.78
21276;BME280;36472;52.170;20.884;2023-04-30T06:00:09;100569.38;;;12.22;75.47
21276;BME280;36472;52.170;20.884;2023-04-30T06:02:39;100566.22;;;12.30;75.33
21276;BME280;36472;52.170;20.884;2023-04-30T06:05:08;100569.59;;;12.32;75.88
21276;BME280;36472;52.170;20.884;2023-04-30T06:07:41;100574.41;;;12.38;76.06
21276;BME280;36472;52.170;20.884;2023-04-30T06:10:10;100572.66;;;12.39;76.24
21276;BME280;36472;52.170;20.884;2023-04-30T06:12:39;100580.56;;;12.39;76.63
21276;BME280;36472;52.170;20.884;2023-04-30T06:15:10;100579.94;;;12.35;76.78
21276;BME280;36472;52.170;20.884;2023-04-30T06:17:39;100585.63;;;12.29;77.08
21276;BME280;36472;52.170;20.884;2023-04-30T06:20:08;100586.25;;;12.32;77.19
21276;BME280;36472;52.170;20.884;2023-04-30T06:22:38;100587.59;;;12.51;77.31
21276;BME280;36472;52.170;20.884;2023-04-30T06:25:08;100588.06;;;12.82;74.93
21276;BME280;36472;52.170;20.884;2023-04-30T06:27:37;100588.25;;;12.91;74.93
21276;BME280;36472;52.170;20.884;2023-04-30T06:30:09;100585.53;;;13.04;73.17
21276;BME280;36472;52.170;20.884;2023-04-30T06:32:38;100595.91;;;13.32;72.81
21276;BME280;36472;52.170;20.884;2023-04-30T06:35:08;100589.50;;;13.47;70.34
21276;BME280;36472;52.170;20.884;2023-04-30T06:37:37;100582.19;;;13.26;69.32
21276;BME280;36472;52.170;20.884;2023-04-30T06:40:07;100581.28;;;13.15;69.79
21276;BME280;36472;52.170;20.884;2023-04-30T06:42:37;100579.38;;;13.17;68.83
21276;BME280;36472;52.170;20.884;2023-04-30T06:45:07;100585.25;;;13.33;68.93
21276;BME280;36472;52.170;20.884;2023-04-30T06:47:37;100590.19;;;13.25;67.97
21276;BME280;36472;52.170;20.884;2023-04-30T06:50:09;100578.38;;;13.31;65.52
21276;BME280;36472;52.170;20.884;2023-04-30T06:52:38;100588.81;;;13.56;64.75
21276;BME280;36472;52.170;20.884;2023-04-30T06:55:07;100596.47;;;13.83;63.67
21276;BME280;36472;52.170;20.884;2023-04-30T06:57:36;100597.34;;;14.07;56.49
21276;BME280;36472;52.170;20.884;2023-04-30T07:00:07;100606.97;;;14.19;54.59
21276;BME280;36472;52.170;20.884;2023-04-30T07:02:37;100597.25;;;14.31;53.97
21276;BME280;36472;52.170;20.884;2023-04-30T07:05:07;100610.69;;;14.16;53.05
21276;BME280;36472;52.170;20.884;2023-04-30T07:07:37;100600.00;;;14.18;53.99
21276;BME280;36472;52.170;20.884;2023-04-30T07:10:07;100609.41;;;14.33;51.27
21276;BME280;36472;52.170;20.884;2023-04-30T07:12:36;100615.78;;;14.42;51.03
21276;BME280;36472;52.170;20.884;2023-04-30T07:15:06;100619.97;;;14.45;51.11
21276;BME280;36472;52.170;20.884;2023-04-30T07:17:37;100614.19;;;14.51;51.81
21276;BME280;36472;52.170;20.884;2023-04-30T07:20:09;100614.94;;;14.75;51.03
21276;BME280;36472;52.170;20.884;2023-04-30T07:22:39;100617.81;;;14.84;50.93
21276;BME280;36472;52.170;20.884;2023-04-30T07:25:11;100619.63;;;14.83;50.41
21276;BME280;36472;52.170;20.884;2023-04-30T07:27:40;100636.47;;;14.59;49.18
21276;BME280;36472;52.170;20.884;2023-04-30T07:30:09;100630.66;;;14.43;49.36
21276;BME280;36472;52.170;20.884;2023-04-30T07:32:39;100632.38;;;14.67;50.33
21276;BME280;36472;52.170;20.884;2023-04-30T07:35:09;100632.38;;;14.67;49.91
21276;BME280;36472;52.170;20.884;2023-04-30T07:37:38;100637.19;;;14.62;47.69
21276;BME280;36472;52.170;20.884;2023-04-30T07:40:09;100641.03;;;14.69;46.54
21276;BME280;36472;52.170;20.884;2023-04-30T07:42:55;100642.69;;;14.47;46.54
21276;BME280;36472;52.170;20.884;2023-04-30T07:45:24;100647.88;;;14.60;46.46
21276;BME280;36472;52.170;20.884;2023-04-30T07:47:54;100648.47;;;14.64;46.47
21276;BME280;36472;52.170;20.884;2023-04-30T07:50:23;100662.69;;;14.63;47.50
21276;BME280;36472;52.170;20.884;2023-04-30T07:52:52;100644.78;;;14.77;48.00
21276;BME280;36472;52.170;20.884;2023-04-30T07:55:21;100643.63;;;15.14;48.88
21276;BME280;36472;52.170;20.884;2023-04-30T07:57:50;100655.91;;;15.15;47.24
21276;BME280;36472;52.170;20.884;2023-04-30T08:00:19;100651.34;;;15.06;46.25
21276;BME280;36472;52.170;20.884;2023-04-30T08:02:48;100658.00;;;14.77;46.75
21276;BME280;36472;52.170;20.884;2023-04-30T08:05:19;100663.03;;;14.92;47.55
21276;BME280;36472;52.170;20.884;2023-04-30T08:07:48;100665.03;;;15.11;48.04
21276;BME280;36472;52.170;20.884;2023-04-30T08:10:16;100653.13;;;15.17;46.30
21276;BME280;36472;52.170;20.884;2023-04-30T08:12:45;100663.44;;;15.31;45.23
21276;BME280;36472;52.170;20.884;2023-04-30T08:15:14;100667.44;;;15.25;44.29
21276;BME280;36472;52.170;20.884;2023-04-30T08:17:43;100668.88;;;15.18;44.21
21276;BME280;36472;52.170;20.884;2023-04-30T08:20:12;100669.16;;;15.15;43.06
21276;BME280;36472;52.170;20.884;2023-04-30T08:22:43;100674.44;;;15.15;43.04
21276;BME280;36472;52.170;20.884;2023-04-30T08:25:12;100662.03;;;15.04;42.47
21276;BME280;36472;52.170;20.884;2023-04-30T08:27:41;100671.69;;;15.05;44.10
21276;BME280;36472;52.170;20.884;2023-04-30T08:30:10;100674.22;;;15.07;43.75
21276;BME280;36472;52.170;20.884;2023-04-30T08:32:39;100678.75;;;15.05;43.62
21276;BME280;36472;52.170;20.884;2023-04-30T08:35:09;100677.56;;;14.98;43.87
21276;BME280;36472;52.170;20.884;2023-04-30T08:37:38;100684.69;;;14.97;43.30
21276;BME280;36472;52.170;20.884;2023-04-30T08:40:09;100681.69;;;15.02;44.83
21276;BME280;36472;52.170;20.884;2023-04-30T08:42:45;100686.22;;;15.22;43.42
21276;BME280;36472;52.170;20.884;2023-04-30T08:45:18;100695.47;;;15.28;42.01
21276;BME280;36472;52.170;20.884;2023-04-30T08:47:48;100688.41;;;15.17;41.36
21276;BME280;36472;52.170;20.884;2023-04-30T08:50:18;100690.81;;;15.09;39.31
21276;BME280;36472;52.170;20.884;2023-04-30T08:52:47;100701.03;;;15.13;40.98
21276;BME280;36472;52.170;20.884;2023-04-30T08:55:17;100695.09;;;15.21;38.33
21276;BME280;36472;52.170;20.884;2023-04-30T08:57:46;100694.00;;;15.35;37.92
21276;BME280;36472;52.170;20.884;2023-04-30T09:00:15;100691.34;;;15.35;37.69
21276;BME280;36472;52.170;20.884;2023-04-30T09:02:45;100705.81;;;15.31;37.78
21276;BME280;36472;52.170;20.884;2023-04-30T09:05:15;100706.19;;;15.26;36.26
21276;BME280;36472;52.170;20.884;2023-04-30T09:07:45;100714.34;;;15.23;35.87
21276;BME280;36472;52.170;20.884;2023-04-30T09:10:20;100706.69;;;15.20;32.84
21276;BME280;36472;52.170;20.884;2023-04-30T09:13:00;100713.75;;;15.20;33.74
21276;BME280;36472;52.170;20.884;2023-04-30T09:15:31;100713.16;;;15.16;35.78
21276;BME280;36472;52.170;20.884;2023-04-30T09:18:09;100714.34;;;15.46;36.09
21276;BME280;36472;52.170;20.884;2023-04-30T09:20:54;100705.34;;;15.69;33.95
21276;BME280;36472;52.170;20.884;2023-04-30T09:23:24;100713.38;;;16.12;34.51
21276;BME280;36472;52.170;20.884;2023-04-30T09:25:55;100713.53;;;16.52;33.66
21276;BME280;36472;52.170;20.884;2023-04-30T09:28:24;100714.06;;;16.98;31.98
21276;BME280;36472;52.170;20.884;2023-04-30T09:30:56;100718.16;;;17.22;31.32
21276;BME280;36472;52.170;20.884;2023-04-30T09:33:25;100714.16;;;17.47;31.05
21276;BME280;36472;52.170;20.884;2023-04-30T09:35:54;100717.25;;;17.52;30.71
21276;BME280;36472;52.170;20.884;2023-04-30T09:38:28;100722.03;;;17.58;29.81
21276;BME280;36472;52.170;20.884;2023-04-30T09:41:00;100727.06;;;17.61;31.67
21276;BME280;36472;52.170;20.884;2023-04-30T09:43:30;100712.81;;;17.72;32.74
21276;BME280;36472;52.170;20.884;2023-04-30T09:45:59;100724.31;;;18.02;32.43
21276;BME280;36472;52.170;20.884;2023-04-30T09:48:28;100721.19;;;18.45;30.88
21276;BME280;36472;52.170;20.884;2023-04-30T09:50:56;100727.66;;;18.90;31.09
21276;BME280;36472;52.170;20.884;2023-04-30T09:53:26;100735.00;;;19.06;30.86
21276;BME280;36472;52.170;20.884;2023-04-30T09:56:01;100725.66;;;18.92;30.58
21276;BME280;36472;52.170;20.884;2023-04-30T09:58:36;100730.84;;;18.94;30.65
21276;BME280;36472;52.170;20.884;2023-04-30T10:01:07;100726.69;;;19.19;30.32
21276;BME280;36472;52.170;20.884;2023-04-30T10:03:39;100718.03;;;19.35;31.75
21276;BME280;36472;52.170;20.884;2023-04-30T10:06:12;100731.50;;;19.05;29.20
21276;BME280;36472;52.170;20.884;2023-04-30T10:08:44;100729.53;;;19.35;29.57
21276;BME280;36472;52.170;20.884;2023-04-30T10:11:19;100723.91;;;20.02;29.80
21276;BME280;36472;52.170;20.884;2023-04-30T10:13:53;100728.59;;;19.54;29.41
21276;BME280;36472;52.170;20.884;2023-04-30T10:16:34;100731.56;;;19.23;30.76
21276;BME280;36472;52.170;20.884;2023-04-30T10:19:13;100725.25;;;19.24;31.69
21276;BME280;36472;52.170;20.884;2023-04-30T10:21:44;100718.31;;;19.32;30.78
21276;BME280;36472;52.170;20.884;2023-04-30T10:24:15;100727.94;;;19.42;28.81
21276;BME280;36472;52.170;20.884;2023-04-30T10:26:48;100722.53;;;19.34;27.82
21276;BME280;36472;52.170;20.884;2023-04-30T10:29:18;100729.16;;;19.30;29.21
21276;BME280;36472;52.170;20.884;2023-04-30T10:31:48;100739.50;;;19.33;28.94
21276;BME280;36472;52.170;20.884;2023-04-30T10:34:30;100734.34;;;19.50;28.02
21276;BME280;36472;52.170;20.884;2023-04-30T10:37:06;100723.38;;;19.80;26.88
21276;BME280;36472;52.170;20.884;2023-04-30T10:39:39;100726.19;;;20.41;25.61
21276;BME280;36472;52.170;20.884;2023-04-30T10:42:09;100724.31;;;20.86;23.82
21276;BME280;36472;52.170;20.884;2023-04-30T10:44:39;100720.53;;;20.97;24.07
21276;BME280;36472;52.170;20.884;2023-04-30T10:47:09;100728.38;;;20.98;24.98
21276;BME280;36472;52.170;20.884;2023-04-30T10:49:38;100733.91;;;21.05;25.68
21276;BME280;36472;52.170;20.884;2023-04-30T10:52:10;100723.97;;;20.81;24.90
21276;BME280;36472;52.170;20.884;2023-04-30T10:54:40;100731.25;;;20.70;24.26
21276;BME280;36472;52.170;20.884;2023-04-30T10:57:20;100729.50;;;20.17;25.56
21276;BME280;36472;52.170;20.884;2023-04-30T11:00:20;100715.47;;;20.15;26.60
21276;BME280;36472;52.170;20.884;2023-04-30T11:02:56;100739.81;;;19.94;25.38
21276;BME280;36472;52.170;20.884;2023-04-30T11:05:35;100726.16;;;19.61;27.61
21276;BME280;36472;52.170;20.884;2023-04-30T11:08:10;100740.66;;;19.31;27.65
21276;BME280;36472;52.170;20.884;2023-04-30T11:10:56;100737.72;;;19.24;27.32
21276;BME280;36472;52.170;20.884;2023-04-30T11:13:28;100727.72;;;19.08;28.62
21276;BME280;36472;52.170;20.884;2023-04-30T11:16:02;100733.13;;;18.88;29.14
21276;BME280;36472;52.170;20.884;2023-04-30T11:18:32;100732.84;;;18.92;29.97
21276;BME280;36472;52.170;20.884;2023-04-30T11:21:01;100740.03;;;19.09;28.91
21276;BME280;36472;52.170;20.884;2023-04-30T11:23:33;100728.69;;;19.07;29.28
21276;BME280;36472;52.170;20.884;2023-04-30T11:26:09;100744.66;;;19.17;28.43
21276;BME280;36472;52.170;20.884;2023-04-30T11:28:52;100740.97;;;19.18;30.10
21276;BME280;36472;52.170;20.884;2023-04-30T11:31:32;100742.09;;;19.43;30.66
21276;BME280;36472;52.170;20.884;2023-04-30T11:34:02;100735.94;;;19.42;28.97
21276;BME280;36472;52.170;20.884;2023-04-30T11:36:31;100745.03;;;19.68;29.60
21276;BME280;36472;52.170;20.884;2023-04-30T11:39:03;100737.06;;;19.86;28.53
21276;BME280;36472;52.170;20.884;2023-04-30T11:41:40;100738.66;;;20.14;27.98
21276;BME280;36472;52.170;20.884;2023-04-30T11:44:24;100735.69;;;20.62;27.90
21276;BME280;36472;52.170;20.884;2023-04-30T11:46:54;100743.38;;;20.65;27.32
21276;BME280;36472;52.170;20.884;2023-04-30T11:49:23;100739.72;;;21.00;27.46
21276;BME280;36472;52.170;20.884;2023-04-30T11:51:52;100745.16;;;20.82;27.15
21276;BME280;36472;52.170;20.884;2023-04-30T11:54:21;100749.56;;;20.65;27.23
21276;BME280;36472;52.170;20.884;2023-04-30T11:56:50;100754.41;;;19.72;28.79
21276;BME280;36472;52.170;20.884;2023-04-30T11:59:19;100764.34;;;18.96;28.92
21276;BME280;36472;52.170;20.884;2023-04-30T12:01:49;100752.84;;;18.39;29.62
21276;BME280;36472;52.170;20.884;2023-04-30T12:04:19;100760.13;;;17.88;29.96
21276;BME280;36472;52.170;20.884;2023-04-30T12:06:48;100754.75;;;17.58;30.44
21276;BME280;36472;52.170;20.884;2023-04-30T12:09:17;100752.97;;;17.28;29.45
21276;BME280;36472;52.170;20.884;2023-04-30T12:11:46;100756.38;;;16.99;31.07
21276;BME280;36472;52.170;20.884;2023-04-30T12:14:16;100752.66;;;16.81;32.08
21276;BME280;36472;52.170;20.884;2023-04-30T12:16:50;100748.56;;;16.77;32.40
21276;BME280;36472;52.170;20.884;2023-04-30T12:19:21;100752.94;;;16.57;34.08
21276;BME280;36472;52.170;20.884;2023-04-30T12:21:53;100748.13;;;16.51;34.93
21276;BME280;36472;52.170;20.884;2023-04-30T12:24:26;100749.41;;;16.56;35.25
21276;BME280;36472;52.170;20.884;2023-04-30T12:26:58;100746.44;;;16.50;33.27
21276;BME280;36472;52.170;20.884;2023-04-30T12:29:28;100748.06;;;16.41;32.38
21276;BME280;36472;52.170;20.884;2023-04-30T12:31:58;100739.53;;;16.37;32.72
21276;BME280;36472;52.170;20.884;2023-04-30T12:34:28;100749.81;;;16.31;33.24
21276;BME280;36472;52.170;20.884;2023-04-30T12:37:01;100753.50;;;16.39;30.51
21276;BME280;36472;52.170;20.884;2023-04-30T12:39:32;100747.22;;;16.19;31.06
21276;BME280;36472;52.170;20.884;2023-04-30T12:42:02;100745.06;;;16.13;31.73
21276;BME280;36472;52.170;20.884;2023-04-30T12:44:41;100749.56;;;16.13;32.34
21276;BME280;36472;52.170;20.884;2023-04-30T12:47:12;100757.03;;;16.07;32.02
21276;BME280;36472;52.170;20.884;2023-04-30T12:49:44;100751.16;;;16.04;32.42
21276;BME280;36472;52.170;20.884;2023-04-30T12:52:13;100746.69;;;16.04;33.11
21276;BME280;36472;52.170;20.884;2023-04-30T12:54:43;100741.13;;;16.07;32.10
21276;BME280;36472;52.170;20.884;2023-04-30T12:57:12;100744.84;;;16.16;33.54
21276;BME280;36472;52.170;20.884;2023-04-30T12:59:58;100740.34;;;16.17;33.06